Time;durP1;ratioP1;P1;durP2;ratioP2;P2;SDS_P1;SDS_P2;PMS_P1;PMS_P2;Temp;Humidity;BMP_temperature;BMP_pressure;BME280_temperature;BME280_humidity;BME280_pressure;Samples;Min_cycle;Max_cycle;Signal;HPM_P1;HPM_P2
2023/12/27 00:00:04;;;;;;;8.50;3.10;;;8.80;16.90;;;;;;5010162;28;20794;-70
2023/12/27 00:02:31;;;;;;;7.17;3.17;;;8.90;16.90;;;;;;5011842;28;20471;-69
2023/12/27 00:04:58;;;;;;;9.00;2.63;;;8.90;16.70;;;;;;5011496;28;20492;-69
2023/12/27 00:07:24;;;;;;;12.13;2.93;;;8.90;16.50;;;;;;5009515;28;20830;-68
2023/12/27 00:09:51;;;;;;;7.10;2.87;;;8.90;16.60;;;;;;5010723;28;20478;-69
2023/12/27 00:12:19;;;;;;;8.63;2.63;;;8.90;16.70;;;;;;5012951;28;20460;-69
2023/12/27 00:14:46;;;;;;;5.83;2.53;;;8.90;16.80;;;;;;5014202;28;20979;-70
2023/12/27 00:17:12;;;;;;;7.53;3.10;;;8.90;16.90;;;;;;5012307;28;20488;-69
2023/12/27 00:19:39;;;;;;;7.37;2.60;;;8.80;16.80;;;;;;5008897;28;21200;-69
2023/12/27 00:22:06;;;;;;;11.30;3.17;;;8.90;16.70;;;;;;5013325;28;20463;-70
2023/12/27 00:24:33;;;;;;;7.47;2.87;;;8.90;16.70;;;;;;5015624;28;20479;-69
2023/12/27 00:26:59;;;;;;;7.50;3.10;;;8.90;16.70;;;;;;5012445;28;20848;-69
2023/12/27 00:29:27;;;;;;;7.17;2.70;;;8.90;17.20;;;;;;5013086;28;20468;-70
2023/12/27 00:31:54;;;;;;;6.90;2.70;;;8.90;16.70;;;;;;5015036;28;20829;-69
2023/12/27 00:34:21;;;;;;;8.37;3.30;;;8.80;16.70;;;;;;5015917;28;20479;-69
2023/12/27 00:36:47;;;;;;;6.50;2.60;;;8.80;16.70;;;;;;5013609;28;20470;-70
2023/12/27 00:39:14;;;;;;;6.80;2.70;;;8.80;16.80;;;;;;5011431;28;20486;-69
2023/12/27 00:41:41;;;;;;;8.83;3.27;;;8.80;16.90;;;;;;5010004;28;20503;-69
2023/12/27 00:44:08;;;;;;;8.53;3.17;;;8.80;17.00;;;;;;5014066;28;20496;-69
2023/12/27 00:46:37;;;;;;;8.10;3.00;;;8.80;17.00;;;;;;5011238;28;20460;-69
2023/12/27 00:49:04;;;;;;;5.80;2.80;;;8.80;17.00;;;;;;5011997;28;20481;-69
2023/12/27 00:51:31;;;;;;;8.83;2.90;;;8.80;17.00;;;;;;5007473;28;20491;-69
2023/12/27 00:53:58;;;;;;;7.93;2.80;;;8.80;17.10;;;;;;5009984;28;21017;-70
2023/12/27 00:56:24;;;;;;;9.00;3.13;;;8.80;17.10;;;;;;5009996;28;20468;-69
2023/12/27 00:58:52;;;;;;;7.50;3.20;;;8.80;17.10;;;;;;5012337;28;20510;-69
2023/12/27 01:01:18;;;;;;;6.97;2.97;;;8.80;17.10;;;;;;5007968;28;20898;-69
2023/12/27 01:03:46;;;;;;;7.00;3.00;;;8.80;17.10;;;;;;5007853;28;20472;-68
2023/12/27 01:06:13;;;;;;;14.43;3.30;;;8.80;17.10;;;;;;5008650;28;20467;-68
2023/12/27 01:08:40;;;;;;;5.87;2.40;;;8.80;17.20;;;;;;5009640;28;20456;-69
2023/12/27 01:11:07;;;;;;;9.83;2.93;;;8.80;17.20;;;;;;5008814;28;20468;-68
2023/12/27 01:13:34;;;;;;;9.57;2.60;;;8.80;17.20;;;;;;5008233;28;20491;-69
2023/12/27 01:16:01;;;;;;;6.37;2.70;;;8.80;17.10;;;;;;5008813;28;20467;-69
2023/12/27 01:18:28;;;;;;;6.07;2.67;;;8.80;17.10;;;;;;5007137;28;20466;-70
2023/12/27 01:20:56;;;;;;;8.90;3.07;;;8.80;17.10;;;;;;5009471;28;20468;-69
2023/12/27 01:23:23;;;;;;;11.37;3.43;;;8.80;17.10;;;;;;5008207;28;20490;-69
2023/12/27 01:25:49;;;;;;;6.57;2.47;;;8.80;17.10;;;;;;5008679;28;20467;-69
2023/12/27 01:28:16;;;;;;;8.20;2.60;;;8.80;17.10;;;;;;5008688;28;20456;-69
2023/12/27 01:30:43;;;;;;;6.53;2.50;;;8.80;17.10;;;;;;5008701;28;20476;-69
2023/12/27 01:33:10;;;;;;;8.37;3.40;;;8.80;17.10;;;;;;5016962;28;20456;-70
2023/12/27 01:35:37;;;;;;;13.70;3.00;;;8.80;17.00;;;;;;5035052;28;20461;-69
2023/12/27 01:38:05;;;;;;;9.20;2.87;;;8.90;17.00;;;;;;5021010;28;20963;-68
2023/12/27 01:40:31;;;;;;;12.13;2.97;;;8.90;16.90;;;;;;5007294;28;20451;-70
2023/12/27 01:42:58;;;;;;;5.30;2.80;;;8.90;16.90;;;;;;5009957;28;20452;-69
2023/12/27 01:45:25;;;;;;;10.40;4.03;;;8.90;16.90;;;;;;5007179;28;20483;-69
2023/12/27 01:47:52;;;;;;;9.10;2.83;;;8.90;16.80;;;;;;5009288;28;20463;-69
2023/12/27 01:50:19;;;;;;;6.53;2.63;;;8.90;16.80;;;;;;5008502;28;20479;-70
2023/12/27 01:52:46;;;;;;;8.43;2.67;;;8.90;16.70;;;;;;5007108;28;20468;-69
2023/12/27 01:55:16;;;;;;;7.00;2.70;;;8.90;16.80;;;;;;5005915;28;20547;-69
2023/12/27 01:57:43;;;;;;;7.47;2.90;;;8.80;16.90;;;;;;5008976;28;20822;-69
2023/12/27 02:00:10;;;;;;;6.13;2.70;;;8.80;17.00;;;;;;5008517;28;20471;-69
2023/12/27 02:02:38;;;;;;;7.73;3.00;;;8.80;16.90;;;;;;5008018;28;20518;-69
2023/12/27 02:05:06;;;;;;;9.17;2.40;;;8.80;17.00;;;;;;5009903;28;20492;-69
2023/12/27 02:07:33;;;;;;;9.60;2.50;;;8.80;17.00;;;;;;5007260;28;20468;-69
2023/12/27 02:10:01;;;;;;;8.83;2.90;;;8.90;16.90;;;;;;5004019;28;20452;-69
2023/12/27 02:12:30;;;;;;;7.93;2.70;;;8.80;16.90;;;;;;5007041;28;21044;-68
2023/12/27 02:14:57;;;;;;;6.73;3.10;;;8.80;16.90;;;;;;5009590;28;20479;-69
2023/12/27 02:17:27;;;;;;;6.20;2.93;;;8.90;16.90;;;;;;5010177;28;20462;-69
2023/12/27 02:19:54;;;;;;;8.50;3.33;;;8.90;16.90;;;;;;5001931;28;20909;-69
2023/12/27 02:22:22;;;;;;;6.80;2.47;;;8.80;16.90;;;;;;5010933;28;20459;-69
2023/12/27 02:24:51;;;;;;;9.13;2.80;;;8.80;17.00;;;;;;5011642;28;20494;-69
2023/12/27 02:27:18;;;;;;;6.00;2.73;;;8.80;17.00;;;;;;5010346;28;20464;-69
2023/12/27 02:29:45;;;;;;;9.43;2.60;;;8.80;17.00;;;;;;5005774;28;20486;-69
2023/12/27 02:32:11;;;;;;;7.63;3.63;;;8.80;17.10;;;;;;5008337;28;20472;-69
2023/12/27 02:34:38;;;;;;;9.00;3.77;;;8.80;17.10;;;;;;5009796;28;20491;-68
2023/12/27 02:37:05;;;;;;;5.80;2.43;;;8.80;17.20;;;;;;5010708;28;20944;-68
2023/12/27 02:39:32;;;;;;;5.53;2.63;;;8.70;17.30;;;;;;5004599;28;20460;-69
2023/12/27 02:42:00;;;;;;;8.73;2.97;;;8.70;17.30;;;;;;5010598;28;20451;-69
2023/12/27 02:44:26;;;;;;;6.50;2.87;;;8.60;17.30;;;;;;5005581;28;20982;-70
2023/12/27 02:46:53;;;;;;;14.53;3.60;;;8.60;17.50;;;;;;5010519;28;20459;-69
2023/12/27 02:49:20;;;;;;;8.70;3.20;;;8.50;17.60;;;;;;5007377;28;20471;-69
2023/12/27 02:51:47;;;;;;;6.77;3.10;;;8.50;17.50;;;;;;5011749;28;20474;-70
2023/12/27 02:54:14;;;;;;;7.73;2.50;;;8.50;17.60;;;;;;5004980;28;20854;-69
2023/12/27 02:56:40;;;;;;;7.57;3.00;;;8.50;17.60;;;;;;5005689;28;20460;-70
2023/12/27 02:59:09;;;;;;;7.10;3.50;;;8.50;17.50;;;;;;5025980;23;20506;-70
2023/12/27 03:01:36;;;;;;;9.60;4.50;;;8.50;17.60;;;;;;5021230;28;20534;-70
2023/12/27 03:04:02;;;;;;;7.40;3.17;;;8.50;17.50;;;;;;5023193;28;20986;-70
2023/12/27 03:06:29;;;;;;;7.53;2.90;;;8.50;17.60;;;;;;5022778;28;20505;-70
2023/12/27 03:08:56;;;;;;;9.10;2.83;;;8.50;17.60;;;;;;5021544;28;20463;-69
2023/12/27 03:11:22;;;;;;;7.27;3.00;;;8.50;17.70;;;;;;5023682;28;21127;-70
2023/12/27 03:13:49;;;;;;;7.60;3.07;;;8.50;17.60;;;;;;5024150;28;20483;-70
2023/12/27 03:16:19;;;;;;;11.10;3.30;;;8.50;17.60;;;;;;5024914;28;20481;-70
2023/12/27 03:18:46;;;;;;;12.77;2.93;;;8.50;17.70;;;;;;5026947;28;20476;-70
2023/12/27 03:21:12;;;;;;;8.00;3.87;;;8.50;17.60;;;;;;5023721;28;20455;-70
2023/12/27 03:23:39;;;;;;;10.23;4.60;;;8.50;17.50;;;;;;5025380;28;20497;-70
2023/12/27 03:26:06;;;;;;;8.03;3.47;;;8.50;17.60;;;;;;5022704;28;20463;-71
2023/12/27 03:28:32;;;;;;;8.37;3.97;;;8.50;17.70;;;;;;5024552;28;20466;-70
2023/12/27 03:30:59;;;;;;;7.70;3.73;;;8.40;17.70;;;;;;5021832;28;20855;-70
2023/12/27 03:33:27;;;;;;;7.43;3.23;;;8.40;17.80;;;;;;5021791;28;20486;-69
2023/12/27 03:35:54;;;;;;;6.20;2.60;;;8.30;17.90;;;;;;5023083;28;20460;-69
2023/12/27 03:38:20;;;;;;;7.80;3.47;;;8.40;18.00;;;;;;5023740;28;20467;-70
2023/12/27 03:40:47;;;;;;;5.90;2.90;;;8.30;17.90;;;;;;5023178;28;20478;-70
2023/12/27 03:43:14;;;;;;;6.80;3.10;;;8.30;17.90;;;;;;5019544;28;20853;-70
2023/12/27 03:45:41;;;;;;;8.23;3.40;;;8.30;17.80;;;;;;5021476;28;20479;-70
2023/12/27 03:48:08;;;;;;;6.10;2.90;;;8.30;17.90;;;;;;5024413;28;20979;-70
2023/12/27 03:50:36;;;;;;;7.53;3.23;;;8.30;17.70;;;;;;5023559;28;21016;-70
2023/12/27 03:53:03;;;;;;;12.30;3.40;;;8.30;17.70;;;;;;5018961;28;20466;-70
2023/12/27 03:55:30;;;;;;;6.20;3.20;;;8.30;17.50;;;;;;5021370;28;20469;-70
2023/12/27 03:57:56;;;;;;;7.77;3.23;;;8.40;17.50;;;;;;5026977;28;20461;-69
2023/12/27 04:00:23;;;;;;;9.47;3.70;;;8.40;17.50;;;;;;5018532;28;20466;-70
2023/12/27 04:02:50;;;;;;;9.50;3.27;;;8.40;17.20;;;;;;5019022;28;20975;-70
2023/12/27 04:05:17;;;;;;;6.77;3.00;;;8.40;17.30;;;;;;5018587;28;20485;-70
2023/12/27 04:07:45;;;;;;;6.90;3.43;;;8.30;17.30;;;;;;5021708;28;20467;-70
2023/12/27 04:10:11;;;;;;;12.17;3.70;;;8.40;17.40;;;;;;5023292;28;21105;-70
2023/12/27 04:12:38;;;;;;;9.73;3.87;;;8.30;17.40;;;;;;5025556;28;20960;-70
2023/12/27 04:15:07;;;;;;;10.83;4.47;;;8.30;17.50;;;;;;5029096;28;20484;-70
2023/12/27 04:17:34;;;;;;;8.93;3.00;;;8.30;17.50;;;;;;5027730;28;20454;-70
2023/12/27 04:20:00;;;;;;;8.57;3.50;;;8.20;17.50;;;;;;5026528;28;20466;-70
2023/12/27 04:22:27;;;;;;;7.43;3.30;;;8.20;17.50;;;;;;5025799;28;20457;-69
2023/12/27 04:24:55;;;;;;;10.50;4.60;;;8.10;17.70;;;;;;5026595;28;20869;-70
2023/12/27 04:27:22;;;;;;;7.77;3.70;;;8.10;18.10;;;;;;5025249;28;20470;-69
2023/12/27 04:29:48;;;;;;;8.70;3.60;;;8.00;18.30;;;;;;5026866;28;20463;-70
2023/12/27 04:32:15;;;;;;;8.17;3.60;;;7.90;18.50;;;;;;5027392;28;20478;-70
2023/12/27 04:34:42;;;;;;;10.70;4.13;;;7.90;18.60;;;;;;5029573;28;20954;-70
2023/12/27 04:37:08;;;;;;;9.10;3.37;;;7.90;18.70;;;;;;5026849;28;20463;-70
2023/12/27 04:39:36;;;;;;;10.37;4.00;;;7.90;18.60;;;;;;5030826;28;20458;-70
2023/12/27 04:42:04;;;;;;;7.00;3.23;;;7.90;18.80;;;;;;5029065;28;20460;-70
2023/12/27 04:44:31;;;;;;;12.50;3.70;;;7.80;18.70;;;;;;5025333;28;20493;-70
2023/12/27 04:46:58;;;;;;;7.50;3.97;;;7.80;18.80;;;;;;5026743;28;20466;-70
2023/12/27 04:49:25;;;;;;;9.73;4.20;;;7.70;18.80;;;;;;5022942;28;20482;-70
2023/12/27 04:51:51;;;;;;;7.13;4.50;;;7.70;18.90;;;;;;5027598;28;20936;-70
2023/12/27 04:54:17;;;;;;;8.53;4.67;;;7.60;18.80;;;;;;5027541;28;20490;-69
2023/12/27 04:56:44;;;;;;;13.23;6.50;;;7.60;18.80;;;;;;5026793;28;20463;-70
2023/12/27 04:59:12;;;;;;;12.87;7.10;;;7.50;19.00;;;;;;5023651;28;20222;-70
2023/12/27 05:01:39;;;;;;;12.60;6.30;;;7.50;18.80;;;;;;5026687;28;21291;-70
2023/12/27 05:04:06;;;;;;;11.30;6.63;;;7.50;18.80;;;;;;5024975;28;20573;-70
2023/12/27 05:06:32;;;;;;;10.67;6.10;;;7.40;19.30;;;;;;5026151;28;21113;-70
2023/12/27 05:09:03;;;;;;;8.83;5.67;;;7.40;18.80;;;;;;5024912;28;20464;-70
2023/12/27 05:11:30;;;;;;;9.97;5.37;;;7.40;18.70;;;;;;5026888;28;20463;-70
2023/12/27 05:13:57;;;;;;;10.30;6.20;;;7.30;18.90;;;;;;5029305;28;21006;-70
2023/12/27 05:16:25;;;;;;;11.37;6.07;;;7.30;18.90;;;;;;5028432;28;20486;-70
2023/12/27 05:18:52;;;;;;;11.03;5.80;;;7.20;18.90;;;;;;5024445;28;20463;-69
2023/12/27 05:21:19;;;;;;;10.90;5.53;;;7.20;18.90;;;;;;5027213;28;20931;-69
2023/12/27 05:23:46;;;;;;;15.20;6.13;;;7.10;19.00;;;;;;5026228;28;21473;-70
2023/12/27 05:26:12;;;;;;;10.07;5.70;;;7.10;19.00;;;;;;5026640;28;20475;-70
2023/12/27 05:28:40;;;;;;;8.40;4.97;;;7.00;19.00;;;;;;5024002;28;20469;-69
2023/12/27 05:31:07;;;;;;;13.13;5.80;;;7.00;18.90;;;;;;5028612;28;20474;-70
2023/12/27 05:33:35;;;;;;;9.20;5.67;;;6.90;19.00;;;;;;5025897;28;20475;-69
2023/12/27 05:36:01;;;;;;;12.07;6.17;;;6.90;19.10;;;;;;5021556;28;20536;-70
2023/12/27 05:38:28;;;;;;;11.40;5.33;;;6.90;19.10;;;;;;5022262;28;20924;-69
2023/12/27 05:40:55;;;;;;;10.43;5.50;;;6.80;19.10;;;;;;5019155;28;20479;-70
2023/12/27 05:43:22;;;;;;;11.63;5.97;;;6.80;19.10;;;;;;5025006;28;20479;-70
2023/12/27 05:45:49;;;;;;;10.70;5.43;;;6.70;19.20;;;;;;5020783;28;20481;-69
2023/12/27 05:48:15;;;;;;;13.53;7.00;;;6.70;19.30;;;;;;5024862;28;20466;-69
2023/12/27 05:50:44;;;;;;;22.97;11.80;;;6.70;19.40;;;;;;5023766;28;20498;-69
2023/12/27 05:53:10;;;;;;;37.20;16.10;;;6.70;19.40;;;;;;5022789;28;20850;-69
2023/12/27 05:55:37;;;;;;;38.73;18.23;;;6.70;19.40;;;;;;5025340;28;20462;-69
2023/12/27 05:58:04;;;;;;;39.40;16.57;;;6.60;19.50;;;;;;5025695;28;20478;-70
2023/12/27 06:00:31;;;;;;;27.07;13.23;;;6.60;19.50;;;;;;5023442;28;20495;-70
2023/12/27 06:02:57;;;;;;;28.70;14.07;;;6.60;19.60;;;;;;5023215;28;20486;-71
2023/12/27 06:05:24;;;;;;;21.10;13.13;;;6.50;19.40;;;;;;5024689;28;20482;-69
2023/12/27 06:07:52;;;;;;;16.27;8.87;;;6.50;19.70;;;;;;5026635;28;20501;-69
2023/12/27 06:10:19;;;;;;;12.00;6.30;;;6.50;19.70;;;;;;5025081;28;20463;-70
2023/12/27 06:12:47;;;;;;;12.27;5.73;;;6.50;19.80;;;;;;5019226;28;20464;-70
2023/12/27 06:15:14;;;;;;;11.47;5.50;;;6.50;19.70;;;;;;5025814;28;20455;-70
2023/12/27 06:17:42;;;;;;;19.40;11.23;;;6.40;19.60;;;;;;5024125;28;20466;-70
2023/12/27 06:20:08;;;;;;;13.60;9.17;;;6.40;19.70;;;;;;5024621;28;20471;-70
2023/12/27 06:22:35;;;;;;;14.60;7.60;;;6.30;19.80;;;;;;5021777;28;20458;-70
2023/12/27 06:25:04;;;;;;;11.10;6.00;;;6.30;19.90;;;;;;5022090;28;20487;-70
2023/12/27 06:27:31;;;;;;;11.43;5.97;;;6.40;19.80;;;;;;5024824;28;20459;-70
2023/12/27 06:29:58;;;;;;;11.70;5.47;;;6.30;19.80;;;;;;5028012;28;20516;-69
2023/12/27 06:32:25;;;;;;;11.40;5.70;;;6.20;19.90;;;;;;5025099;28;20486;-70
2023/12/27 06:34:51;;;;;;;8.80;4.90;;;6.20;20.00;;;;;;5021226;28;20505;-69
2023/12/27 06:37:18;;;;;;;9.30;4.87;;;6.20;20.10;;;;;;5024828;28;20454;-70
2023/12/27 06:39:45;;;;;;;8.20;5.10;;;6.20;20.10;;;;;;5024983;28;20983;-70
2023/12/27 06:42:13;;;;;;;12.90;4.90;;;6.20;20.00;;;;;;5025505;28;20455;-70
2023/12/27 06:44:40;;;;;;;8.90;3.93;;;6.10;20.00;;;;;;5018184;28;20986;-69
2023/12/27 06:47:05;;;;;;;7.93;5.77;;;6.20;20.00;;;;;;5025128;28;20474;-69
2023/12/27 06:49:32;;;;;;;9.57;6.10;;;6.20;20.00;;;;;;5020733;28;20968;-70
2023/12/27 06:51:59;;;;;;;8.07;5.03;;;6.10;20.00;;;;;;5023509;28;20211;-69
2023/12/27 06:54:25;;;;;;;7.80;5.50;;;6.10;20.00;;;;;;5024451;28;20506;-69
2023/12/27 06:56:52;;;;;;;11.20;4.93;;;6.00;20.00;;;;;;5023282;28;20462;-70
2023/12/27 06:59:20;;;;;;;7.57;5.13;;;6.00;20.00;;;;;;5022845;28;20959;-70
2023/12/27 07:01:47;;;;;;;8.80;4.97;;;6.00;20.10;;;;;;5021274;28;20474;-70
2023/12/27 07:04:14;;;;;;;12.37;5.73;;;6.00;20.10;;;;;;5019608;28;20858;-70
2023/12/27 07:06:41;;;;;;;18.03;6.00;;;6.00;20.00;;;;;;5021989;28;20487;-69
2023/12/27 07:09:09;;;;;;;10.63;6.40;;;6.00;20.00;;;;;;5025636;28;20940;-70
2023/12/27 07:11:36;;;;;;;9.83;6.07;;;6.00;20.00;;;;;;5026505;28;20461;-70
2023/12/27 07:14:03;;;;;;;13.37;5.90;;;6.00;20.00;;;;;;5022609;28;20565;-70
2023/12/27 07:16:31;;;;;;;23.93;9.77;;;6.00;20.00;;;;;;5025378;28;20456;-69
2023/12/27 07:18:58;;;;;;;14.37;7.40;;;6.00;20.10;;;;;;5020872;28;20459;-69
2023/12/27 07:21:24;;;;;;;8.87;5.30;;;6.00;20.00;;;;;;5024616;28;20657;-69
2023/12/27 07:23:51;;;;;;;27.97;12.17;;;6.10;20.00;;;;;;5018544;28;20486;-69
2023/12/27 07:26:18;;;;;;;22.93;10.50;;;6.10;20.00;;;;;;5020786;28;20502;-69
2023/12/27 07:28:45;;;;;;;13.87;7.50;;;6.10;20.00;;;;;;5022839;28;20529;-69
2023/12/27 07:31:12;;;;;;;11.93;6.57;;;6.10;20.20;;;;;;5023526;28;21163;-69
2023/12/27 07:33:40;;;;;;;14.40;7.40;;;6.20;20.20;;;;;;5027292;28;20573;-69
2023/12/27 07:36:08;;;;;;;21.20;12.47;;;6.20;20.20;;;;;;5035711;28;20455;-69
2023/12/27 07:38:35;;;;;;;21.67;11.40;;;6.30;20.00;;;;;;5028403;28;20463;-68
2023/12/27 07:41:01;;;;;;;13.90;8.50;;;6.30;19.80;;;;;;5023643;28;20463;-68
2023/12/27 07:43:28;;;;;;;14.70;9.00;;;6.40;19.40;;;;;;5024087;28;20486;-68
2023/12/27 07:45:55;;;;;;;15.40;7.70;;;6.40;19.30;;;;;;5025350;28;20501;-69
2023/12/27 07:48:22;;;;;;;27.37;10.70;;;6.50;19.20;;;;;;5030429;28;20458;-69
2023/12/27 07:50:51;;;;;;;23.57;10.67;;;6.60;19.10;;;;;;5023098;28;20483;-69
2023/12/27 07:53:17;;;;;;;20.20;9.97;;;6.60;18.70;;;;;;5021660;28;20529;-68
2023/12/27 07:55:44;;;;;;;16.80;8.73;;;6.70;18.60;;;;;;5021000;28;20458;-69
2023/12/27 07:58:11;;;;;;;13.33;5.80;;;6.70;18.70;;;;;;5026634;28;20931;-69
2023/12/27 08:00:37;;;;;;;9.37;5.60;;;6.70;18.60;;;;;;5020960;28;20513;-69
2023/12/27 08:03:08;;;;;;;11.63;6.47;;;6.80;18.60;;;;;;5025640;28;20991;-69
2023/12/27 08:05:35;;;;;;;11.27;6.10;;;6.90;18.40;;;;;;5019988;28;20578;-69
2023/12/27 08:08:03;;;;;;;9.37;5.90;;;7.20;18.30;;;;;;5024505;28;20459;-69
2023/12/27 08:10:31;;;;;;;12.93;6.57;;;7.40;18.10;;;;;;5025428;28;20955;-68
2023/12/27 08:12:58;;;;;;;8.40;5.33;;;8.20;16.80;;;;;;5026485;28;20455;-69
2023/12/27 08:15:24;;;;;;;9.20;5.40;;;8.50;14.60;;;;;;5022316;28;20451;-69
2023/12/27 08:17:51;;;;;;;10.00;4.93;;;8.50;13.90;;;;;;5026309;28;20460;-69
2023/12/27 08:20:18;;;;;;;11.10;5.60;;;8.40;13.60;;;;;;5022579;28;20533;-68
2023/12/27 08:22:44;;;;;;;12.10;5.27;;;8.40;13.80;;;;;;5028660;28;20569;-68
2023/12/27 08:25:15;;;;;;;10.30;5.37;;;8.40;14.00;;;;;;5028358;28;20459;-68
2023/12/27 08:27:42;;;;;;;10.73;5.30;;;8.60;14.80;;;;;;5030418;28;20516;-68
2023/12/27 08:30:09;;;;;;;10.30;4.63;;;9.10;14.10;;;;;;5027634;28;20470;-69
2023/12/27 08:32:36;;;;;;;8.60;4.20;;;9.70;12.30;;;;;;5025594;28;20478;-69
2023/12/27 08:35:03;;;;;;;9.03;5.40;;;10.10;10.70;;;;;;5019569;28;20890;-69
2023/12/27 08:37:30;;;;;;;9.60;5.50;;;10.60;9.80;;;;;;5020933;28;20941;-69
2023/12/27 08:39:56;;;;;;;11.60;6.70;;;11.10;9.10;;;;;;5025819;28;20462;-69
2023/12/27 08:42:24;;;;;;;10.80;6.90;;;11.70;8.30;;;;;;5028288;28;20466;-69
2023/12/27 08:44:51;;;;;;;13.43;7.80;;;12.30;6.70;;;;;;5025035;28;20486;-67
2023/12/27 08:47:18;;;;;;;10.60;6.43;;;12.80;5.00;;;;;;5022659;28;20487;-68
2023/12/27 08:49:44;;;;;;;11.70;6.23;;;12.90;4.50;;;;;;5021621;28;20467;-68
2023/12/27 08:52:11;;;;;;;7.23;4.30;;;12.60;4.00;;;;;;5018040;28;21159;-71
2023/12/27 08:54:38;;;;;;;7.60;4.60;;;12.30;4.40;;;;;;5032192;28;20486;-69
2023/12/27 08:57:05;;;;;;;11.67;4.60;;;12.10;3.50;;;;;;5030803;28;20470;-69
2023/12/27 08:59:33;;;;;;;7.50;4.57;;;11.90;4.10;;;;;;5035801;22;20482;-68
2023/12/27 09:01:59;;;;;;;7.90;4.47;;;11.70;4.60;;;;;;5024355;28;20481;-70
2023/12/27 09:04:27;;;;;;;8.40;4.37;;;11.50;5.00;;;;;;5040528;28;20478;-67
2023/12/27 09:06:54;;;;;;;10.03;4.50;;;11.60;6.10;;;;;;5047170;28;20230;-68
2023/12/27 09:09:21;;;;;;;6.60;3.87;;;11.90;6.00;;;;;;5045090;28;20458;-69
2023/12/27 09:11:48;;;;;;;7.60;4.10;;;12.20;4.70;;;;;;5048175;28;20474;-68
2023/12/27 09:14:14;;;;;;;6.93;4.13;;;12.40;3.70;;;;;;5046220;28;20478;-67
2023/12/27 09:16:42;;;;;;;6.47;3.50;;;12.70;3.10;;;;;;5047359;28;20466;-68
2023/12/27 09:19:09;;;;;;;6.10;4.23;;;12.80;1.80;;;;;;5046605;28;20462;-69
2023/12/27 09:21:43;;;;;;;7.27;3.63;;;13.00;1.40;;;;;;5048601;28;20462;-68
2023/12/27 09:24:10;;;;;;;6.27;3.53;;;13.40;1.00;;;;;;5046010;28;20474;-68
2023/12/27 09:26:36;;;;;;;5.43;3.20;;;13.70;1.00;;;;;;5047444;28;20482;-69
2023/12/27 09:29:04;;;;;;;6.50;3.77;;;14.20;1.00;;;;;;5046142;28;20474;-69
2023/12/27 09:31:30;;;;;;;7.63;3.90;;;14.60;1.00;;;;;;5046527;28;20478;-69
2023/12/27 09:33:59;;;;;;;6.93;3.53;;;15.00;1.00;;;;;;5048508;28;20531;-68
2023/12/27 09:36:26;;;;;;;8.13;3.60;;;14.80;1.00;;;;;;5051619;28;20823;-71
2023/12/27 09:38:53;;;;;;;7.07;4.17;;;14.50;1.00;;;;;;5048177;28;20458;-69
2023/12/27 09:41:20;;;;;;;12.20;4.30;;;14.30;1.00;;;;;;5047159;28;21037;-69
2023/12/27 09:43:48;;;;;;;5.20;3.07;;;14.30;1.00;;;;;;5047839;28;20477;-71
2023/12/27 09:46:14;;;;;;;6.33;3.67;;;14.50;1.00;;;;;;5055961;23;20470;-70
2023/12/27 09:48:42;;;;;;;8.00;3.90;;;14.70;1.00;;;;;;5023790;28;20478;-70
2023/12/27 09:51:11;;;;;;;7.73;3.67;;;14.90;1.00;;;;;;5023521;28;20513;-70
2023/12/27 09:53:40;;;;;;;5.80;3.83;;;15.00;1.00;;;;;;5022889;28;20484;-70
2023/12/27 09:56:07;;;;;;;6.67;3.37;;;15.20;1.00;;;;;;5026051;28;20505;-69
2023/12/27 09:58:37;;;;;;;6.90;3.40;;;15.20;1.00;;;;;;5027714;28;20466;-69
2023/12/27 10:01:06;;;;;;;5.97;3.40;;;15.10;1.00;;;;;;5024389;28;20542;-68
2023/12/27 10:03:35;;;;;;;6.80;3.40;;;15.10;1.00;;;;;;5026066;28;21006;-69
2023/12/27 10:06:17;;;;;;;6.60;3.20;;;15.20;1.00;;;;;;5021373;28;20478;-67
2023/12/27 10:08:44;;;;;;;6.07;3.13;;;15.40;1.00;;;;;;5024736;28;20837;-68
2023/12/27 10:11:11;;;;;;;5.50;3.13;;;15.60;1.00;;;;;;5028311;28;20466;-68
2023/12/27 10:13:39;;;;;;;7.00;2.93;;;15.70;1.00;;;;;;5024423;28;20845;-67
2023/12/27 10:16:06;;;;;;;5.47;3.00;;;15.70;1.00;;;;;;5022101;28;20466;-68
2023/12/27 10:18:33;;;;;;;7.07;3.27;;;15.90;1.00;;;;;;5022426;28;20470;-68
2023/12/27 10:21:00;;;;;;;9.83;3.60;;;15.90;1.00;;;;;;5026598;28;20471;-68
2023/12/27 10:23:29;;;;;;;6.47;3.00;;;16.00;1.00;;;;;;5022459;28;20493;-69
2023/12/27 10:25:56;;;;;;;6.30;2.97;;;16.00;1.00;;;;;;5025196;28;20519;-69
2023/12/27 10:28:23;;;;;;;8.13;3.17;;;16.00;1.00;;;;;;5025896;28;20462;-68
2023/12/27 10:30:51;;;;;;;5.30;3.03;;;16.00;1.00;;;;;;5028799;28;20505;-68
2023/12/27 10:33:19;;;;;;;4.93;3.17;;;15.80;1.00;;;;;;5034901;28;20482;-68
2023/12/27 10:35:47;;;;;;;5.77;3.10;;;15.70;1.00;;;;;;5046663;28;20454;-68
2023/12/27 10:38:14;;;;;;;7.80;4.60;;;15.60;1.00;;;;;;5034185;28;21000;-68
2023/12/27 10:40:42;;;;;;;5.80;3.67;;;15.40;1.00;;;;;;5025173;28;20983;-68
2023/12/27 10:43:09;;;;;;;6.03;3.47;;;15.40;1.00;;;;;;5030363;28;20478;-69
2023/12/27 10:45:37;;;;;;;5.10;2.90;;;15.50;1.00;;;;;;5023821;28;20459;-69
2023/12/27 10:48:05;;;;;;;5.00;2.50;;;15.70;1.00;;;;;;4985690;28;1103092;-69
2023/12/27 10:50:34;;;;;;;6.00;3.10;;;15.80;1.00;;;;;;5029108;28;20209;-68
2023/12/27 10:53:03;;;;;;;6.30;3.40;;;15.90;1.00;;;;;;5030835;28;20491;-69
2023/12/27 10:55:31;;;;;;;5.87;3.57;;;16.10;1.00;;;;;;5025836;28;20528;-69
2023/12/27 10:58:01;;;;;;;6.20;3.30;;;16.20;1.00;;;;;;5027348;28;20470;-69
2023/12/27 11:00:29;;;;;;;6.40;3.57;;;16.30;1.00;;;;;;5015475;28;20470;-68
2023/12/27 11:02:57;;;;;;;5.77;3.07;;;16.40;1.00;;;;;;5018644;28;20481;-71
2023/12/27 11:05:26;;;;;;;6.43;3.37;;;16.50;1.00;;;;;;5017736;28;20482;-70
2023/12/27 11:07:54;;;;;;;6.10;3.70;;;16.70;1.00;;;;;;5024471;28;20506;-69
2023/12/27 11:10:22;;;;;;;6.57;3.10;;;16.80;1.00;;;;;;5025060;28;20485;-69
2023/12/27 11:12:50;;;;;;;6.50;3.30;;;16.90;1.00;;;;;;5027691;28;20454;-69
2023/12/27 11:15:19;;;;;;;8.13;2.87;;;16.90;1.00;;;;;;5025989;28;20473;-69
2023/12/27 11:17:49;;;;;;;5.43;2.70;;;17.00;1.00;;;;;;5027578;28;20463;-70
2023/12/27 11:20:16;;;;;;;6.93;2.73;;;17.10;1.00;;;;;;5026378;28;20833;-71
2023/12/27 11:22:44;;;;;;;5.77;3.57;;;17.20;1.00;;;;;;5022883;28;20947;-70
2023/12/27 11:25:13;;;;;;;5.70;2.93;;;17.30;1.00;;;;;;5024858;28;20950;-68
2023/12/27 11:27:41;;;;;;;5.00;3.03;;;17.40;1.00;;;;;;5025258;28;21233;-68
2023/12/27 11:30:11;;;;;;;5.00;2.60;;;17.40;1.00;;;;;;5026014;28;20499;-68
2023/12/27 11:32:41;;;;;;;6.40;3.07;;;17.60;1.00;;;;;;5028047;28;20471;-69
2023/12/27 11:35:10;;;;;;;6.10;3.03;;;17.60;1.00;;;;;;5030169;28;20482;-68
2023/12/27 11:37:39;;;;;;;5.20;2.67;;;17.70;1.00;;;;;;5023518;28;20455;-69
2023/12/27 11:40:09;;;;;;;5.83;2.90;;;17.80;1.00;;;;;;5024471;28;20967;-69
2023/12/27 11:42:38;;;;;;;5.10;2.80;;;17.80;1.00;;;;;;5024498;28;20812;-72
2023/12/27 11:45:05;;;;;;;4.87;2.47;;;17.80;1.00;;;;;;5026822;28;21076;-72
2023/12/27 11:47:32;;;;;;;4.93;3.00;;;17.90;1.00;;;;;;5026638;28;20482;-68
2023/12/27 11:50:20;;;;;;;6.20;2.93;;;18.00;1.00;;;;;;5025254;28;20474;-67
2023/12/27 11:52:51;;;;;;;5.57;2.70;;;18.00;1.00;;;;;;5025651;28;20459;-67
2023/12/27 11:55:20;;;;;;;6.67;3.03;;;18.00;1.00;;;;;;5025580;28;20964;-68
2023/12/27 11:57:56;;;;;;;6.80;3.33;;;17.90;1.00;;;;;;5019051;28;21005;-67
2023/12/27 12:00:25;;;;;;;6.97;3.10;;;17.80;1.00;;;;;;5021531;28;20506;-67
2023/12/27 12:02:58;;;;;;;6.87;3.13;;;17.90;1.00;;;;;;5024233;28;20524;-67
2023/12/27 12:05:44;;;;;;;5.70;2.77;;;17.80;1.00;;;;;;5024380;28;20487;-68
2023/12/27 12:08:18;;;;;;;6.13;3.67;;;17.90;1.00;;;;;;5023289;28;20496;-68
2023/12/27 12:11:04;;;;;;;7.40;3.90;;;18.00;1.00;;;;;;5021931;28;21009;-70
2023/12/27 12:13:32;;;;;;;6.10;3.40;;;18.00;1.00;;;;;;5023732;28;21026;-71
2023/12/27 12:15:59;;;;;;;5.23;2.50;;;18.00;1.00;;;;;;5020633;28;20543;-71
2023/12/27 12:18:27;;;;;;;5.47;2.73;;;18.10;1.00;;;;;;5025207;28;20459;-74
2023/12/27 12:20:56;;;;;;;4.97;2.50;;;18.10;1.00;;;;;;5024006;28;20979;-72
2023/12/27 12:23:22;;;;;;;5.87;3.07;;;18.10;1.00;;;;;;5025471;28;21374;-72
2023/12/27 12:25:49;;;;;;;7.03;3.10;;;18.20;1.00;;;;;;5019524;28;20452;-72
2023/12/27 12:28:16;;;;;;;7.17;3.80;;;18.20;1.00;;;;;;5021854;28;20475;-72
2023/12/27 12:30:46;;;;;;;4.50;2.50;;;18.10;1.00;;;;;;5021492;28;20459;-72
2023/12/27 12:33:12;;;;;;;7.83;3.07;;;18.00;1.00;;;;;;5023195;28;20522;-72
2023/12/27 12:35:39;;;;;;;5.70;2.63;;;17.90;1.00;;;;;;5026332;28;20474;-72
2023/12/27 12:38:08;;;;;;;6.47;3.00;;;17.80;1.00;;;;;;5024147;28;20510;-72
2023/12/27 12:40:36;;;;;;;6.23;2.47;;;17.70;1.00;;;;;;5025270;28;20454;-72
2023/12/27 12:43:04;;;;;;;4.80;2.90;;;17.60;1.00;;;;;;5029519;28;20458;-72
2023/12/27 12:45:32;;;;;;;4.93;2.63;;;17.40;1.00;;;;;;5025328;28;20471;-72
2023/12/27 12:47:59;;;;;;;6.13;3.17;;;17.20;1.00;;;;;;5026254;28;20561;-72
2023/12/27 12:50:26;;;;;;;5.20;2.70;;;17.00;1.00;;;;;;5032671;28;20470;-72
2023/12/27 12:52:53;;;;;;;5.23;2.50;;;16.90;1.00;;;;;;5030202;28;20458;-72